City of Spokane Valley, Washington
Current Conditions -  °F | °C
As of 10:53 PM on Wednesday 22 Oct 2014 (Local Time) from KSFF Reporting Station
Overcast Overcast  
Wind Chill: 56°   Ceiling: 6500
Heat Index: 56°   Visibility: 10mi
Dew Point: 46°   Wind: 12mph
Humidity: 69%   Direction: 160°SSE
Pressure: 29.76"   Gusts: 16mph
Location:  47.6358°N, 117.252°W
Report Text: KSFF 230553Z 16010G14KT 10SM OVC065 13/08 A2976 RMK AO2 SLP073 60014 T01330078 10133 20106 58009
Loading
Personal Weather Stations






























Interactive Weather Map
Tropical Storm Tracking
New forecast layout! Learn more

10-Day Weather Forecast

Advertisements
Track Severe Weather on mobile